Terminal Aerodrome Forecast
Issued by NWS

Home | Current Version | Previous Version | Text Only | Print | Product List | Glossary Off
Versions: 1 2 3 4 5 6 7 8 9 10 11 12 13 14 15 16

000
FTUS43 KIWX 292320
TAFSBN
TAF
KSBN 292320Z 3000/3024 12005KT 4SM -SHRA BR OVC060
     FM300400 VRB03KT 3SM BR BKN030
      TEMPO 3009/3013 2SM BR
     FM301600 25007KT P6SM BKN040=

USA.gov is the U.S. government's official web portal to all federal, state and local government web resources and services.